Time;durP1;ratioP1;P1;durP2;ratioP2;P2;SDS_P1;SDS_P2;PMS_P1;PMS_P2;Temp;Humidity;BMP_temperature;BMP_pressure;BME280_temperature;BME280_humidity;BME280_pressure;Samples;Min_cycle;Max_cycle;Signal;HPM_P1;HPM_P2
2022/10/20 00:02:36;;;;;;;9.35;6.63;;;9.50;99.90;;;;;;5011971;28;20482;-55
2022/10/20 00:05:22;;;;;;;8.35;6.75;;;9.50;99.90;;;;;;5011650;28;20490;-51
2022/10/20 00:08:08;;;;;;;7.57;6.40;;;9.40;99.90;;;;;;5011240;28;20037;-53
2022/10/20 00:10:54;;;;;;;7.32;6.45;;;9.30;99.90;;;;;;5011526;28;20038;-50
2022/10/20 00:13:42;;;;;;;6.75;6.03;;;9.30;99.90;;;;;;5011128;28;20038;-51
2022/10/20 00:16:31;;;;;;;8.57;6.50;;;9.30;99.90;;;;;;5012581;28;20030;-52
2022/10/20 00:19:17;;;;;;;7.97;6.68;;;9.40;99.90;;;;;;5011575;28;20026;-51
2022/10/20 00:22:03;;;;;;;7.68;6.32;;;9.40;99.90;;;;;;5011463;28;20369;-52
2022/10/20 00:24:51;;;;;;;9.30;6.07;;;9.50;99.90;;;;;;5011531;28;20076;-49
2022/10/20 00:27:37;;;;;;;8.82;5.70;;;9.60;99.90;;;;;;5014610;28;20034;-55
2022/10/20 00:30:22;;;;;;;7.38;5.85;;;9.60;99.90;;;;;;5035250;28;20040;-54
2022/10/20 00:33:08;;;;;;;6.20;5.60;;;9.50;99.90;;;;;;5027824;28;20109;-56
2022/10/20 00:35:57;;;;;;;7.35;6.18;;;9.50;99.90;;;;;;5011420;28;20033;-56
2022/10/20 00:38:43;;;;;;;7.10;6.40;;;9.50;99.90;;;;;;5010440;28;20029;-52
2022/10/20 00:41:30;;;;;;;7.95;7.10;;;9.50;99.90;;;;;;5011534;28;20402;-57
2022/10/20 00:44:49;;;;;;;7.28;6.57;;;9.30;99.90;;;;;;5011005;28;20105;-56
2022/10/20 00:47:43;;;;;;;8.65;6.43;;;9.10;99.90;;;;;;5010803;28;20021;-56
2022/10/20 00:50:33;;;;;;;11.27;6.68;;;9.00;99.90;;;;;;5011543;28;20032;-54
2022/10/20 00:53:23;;;;;;;7.05;6.35;;;9.00;99.90;;;;;;5010743;28;20034;-53
2022/10/20 00:56:09;;;;;;;8.38;6.10;;;9.00;99.90;;;;;;5010734;28;20038;-53
2022/10/20 00:58:55;;;;;;;8.00;6.50;;;9.00;99.90;;;;;;5010950;28;20050;-54
2022/10/20 01:01:42;;;;;;;9.43;6.60;;;9.00;99.90;;;;;;5010586;28;20543;-58
2022/10/20 01:04:30;;;;;;;7.63;6.00;;;9.00;99.90;;;;;;5009716;28;20065;-54
2022/10/20 01:07:15;;;;;;;8.10;6.03;;;9.00;99.90;;;;;;5010434;28;20524;-56
2022/10/20 01:10:04;;;;;;;9.63;6.93;;;8.90;99.90;;;;;;5011155;28;20093;-54
2022/10/20 01:12:57;;;;;;;8.10;6.15;;;8.90;99.90;;;;;;5010810;28;20072;-54
2022/10/20 01:16:08;;;;;;;11.07;5.80;;;8.90;99.90;;;;;;4997444;28;20116;-53
2022/10/20 01:19:17;;;;;;;6.53;5.80;;;8.80;99.90;;;;;;5010178;28;20074;-53
2022/10/20 01:22:22;;;;;;;6.45;5.85;;;8.80;99.90;;;;;;5005475;28;20650;-53
2022/10/20 01:25:17;;;;;;;9.82;5.80;;;8.80;99.90;;;;;;5010676;28;20036;-50
2022/10/20 01:28:21;;;;;;;7.28;5.97;;;8.90;99.90;;;;;;4994844;28;20108;-54
2022/10/20 01:31:32;;;;;;;7.07;6.03;;;8.90;99.90;;;;;;5009330;28;20061;-52
2022/10/20 01:34:45;;;;;;;6.03;5.43;;;8.90;99.90;;;;;;5010107;28;20037;-53
2022/10/20 01:37:50;;;;;;;5.63;5.03;;;8.80;99.90;;;;;;5009819;28;20406;-54
2022/10/20 01:40:54;;;;;;;7.00;5.50;;;8.80;99.90;;;;;;5010010;28;20032;-53
2022/10/20 01:43:44;;;;;;;6.40;5.03;;;8.80;99.90;;;;;;5010466;28;20406;-58
2022/10/20 01:46:31;;;;;;;8.18;5.53;;;8.80;99.90;;;;;;5010370;28;20112;-55
2022/10/20 01:49:17;;;;;;;11.07;5.20;;;8.70;99.90;;;;;;5008374;28;20096;-55
2022/10/20 01:52:04;;;;;;;7.05;5.20;;;8.70;99.90;;;;;;5009294;28;20088;-52
2022/10/20 01:54:49;;;;;;;5.65;4.90;;;8.60;99.90;;;;;;4996187;28;20375;-52
2022/10/20 01:57:55;;;;;;;5.15;4.65;;;8.60;99.90;;;;;;5009502;28;20459;-54
2022/10/20 02:00:42;;;;;;;5.97;4.93;;;8.60;99.90;;;;;;4990439;28;20077;-56
2022/10/20 02:03:57;;;;;;;6.72;5.05;;;8.60;99.90;;;;;;4990981;28;20069;-56
2022/10/20 02:07:01;;;;;;;6.40;4.82;;;8.60;99.90;;;;;;4993918;28;20473;-52
2022/10/20 02:09:49;;;;;;;7.68;5.47;;;8.40;99.90;;;;;;5010716;28;20033;-50
2022/10/20 02:12:40;;;;;;;5.60;5.00;;;8.40;99.90;;;;;;5009557;28;20508;-55
2022/10/20 02:15:28;;;;;;;5.38;4.78;;;8.40;99.90;;;;;;5010236;28;20030;-57
2022/10/20 02:18:21;;;;;;;7.68;5.45;;;8.40;99.90;;;;;;5012839;28;20037;-52
2022/10/20 02:21:07;;;;;;;7.07;4.70;;;8.40;99.90;;;;;;5013974;28;20032;-55
2022/10/20 02:23:55;;;;;;;5.53;4.97;;;8.60;99.90;;;;;;5013200;28;20048;-55
2022/10/20 02:26:41;;;;;;;7.53;4.60;;;8.70;99.90;;;;;;5013721;28;20026;-55
2022/10/20 02:29:31;;;;;;;8.40;4.90;;;8.80;99.90;;;;;;5013489;28;20034;-54
2022/10/20 02:32:18;;;;;;;8.05;5.13;;;8.90;99.90;;;;;;5012982;28;20112;-51
2022/10/20 02:35:06;;;;;;;7.13;5.25;;;8.90;99.90;;;;;;5013069;28;20025;-54
2022/10/20 02:37:52;;;;;;;5.13;4.63;;;8.90;99.90;;;;;;5013700;28;20022;-54
2022/10/20 02:40:38;;;;;;;6.25;5.38;;;8.90;99.90;;;;;;5012911;28;20429;-53
2022/10/20 02:43:24;;;;;;;6.47;5.25;;;8.80;99.90;;;;;;4993308;28;20030;-52
2022/10/20 02:46:10;;;;;;;5.93;5.32;;;8.70;99.90;;;;;;5006108;28;20038;-51
2022/10/20 02:48:56;;;;;;;6.68;5.20;;;8.60;99.90;;;;;;4998790;28;20062;-57
2022/10/20 02:51:42;;;;;;;5.93;5.30;;;8.60;99.90;;;;;;4993430;28;20042;-52
2022/10/20 02:54:28;;;;;;;8.68;6.25;;;8.50;99.90;;;;;;4998349;28;20109;-50
2022/10/20 02:57:14;;;;;;;7.13;5.90;;;8.40;99.90;;;;;;5012998;28;20109;-53
2022/10/20 03:00:00;;;;;;;7.75;5.75;;;8.20;99.90;;;;;;5013607;28;20037;-56
2022/10/20 03:02:50;;;;;;;6.97;5.82;;;8.20;99.90;;;;;;5014419;28;20088;-56
2022/10/20 03:05:43;;;;;;;9.50;6.20;;;8.20;99.90;;;;;;5012654;28;20621;-52
2022/10/20 03:08:29;;;;;;;7.07;6.00;;;8.10;99.90;;;;;;5013043;28;20030;-52
2022/10/20 03:11:14;;;;;;;7.30;6.05;;;8.00;99.90;;;;;;5012513;28;20109;-56
2022/10/20 03:14:01;;;;;;;6.90;5.78;;;8.00;99.90;;;;;;5013632;28;20030;-55
2022/10/20 03:16:47;;;;;;;6.30;5.50;;;8.00;99.90;;;;;;5013018;28;20038;-53
2022/10/20 03:19:32;;;;;;;8.35;6.00;;;8.00;99.90;;;;;;5012986;28;20041;-53
2022/10/20 03:22:18;;;;;;;7.95;6.00;;;7.90;99.90;;;;;;5012203;28;20043;-55
2022/10/20 03:25:05;;;;;;;8.27;6.30;;;7.90;99.90;;;;;;5012445;28;20080;-50
2022/10/20 03:27:51;;;;;;;6.85;6.03;;;7.70;99.90;;;;;;5011855;28;20038;-51
2022/10/20 03:30:36;;;;;;;9.40;6.78;;;7.70;99.90;;;;;;5012340;28;20573;-52
2022/10/20 03:33:23;;;;;;;11.18;6.28;;;7.70;99.90;;;;;;5012427;28;20045;-54
2022/10/20 03:36:09;;;;;;;9.55;7.20;;;7.70;99.90;;;;;;4997426;28;20406;-52
2022/10/20 03:38:55;;;;;;;10.05;6.53;;;7.70;99.90;;;;;;4993214;28;20031;-56
2022/10/20 03:41:41;;;;;;;7.50;6.65;;;7.70;99.90;;;;;;4994644;28;20105;-54
2022/10/20 03:44:27;;;;;;;10.20;6.68;;;7.80;99.90;;;;;;5012023;28;20034;-55
2022/10/20 03:47:13;;;;;;;8.05;6.40;;;7.70;99.90;;;;;;5011881;28;20088;-50
2022/10/20 03:49:59;;;;;;;9.90;7.13;;;7.60;99.90;;;;;;5012290;28;20549;-56
2022/10/20 03:52:49;;;;;;;6.75;5.82;;;7.70;99.90;;;;;;4993150;28;20485;-51
2022/10/20 03:55:36;;;;;;;8.45;7.43;;;7.70;99.90;;;;;;4995177;28;20026;-56
2022/10/20 03:58:22;;;;;;;9.57;6.45;;;7.60;99.90;;;;;;5012691;28;20033;-56
2022/10/20 04:01:13;;;;;;;11.05;7.05;;;7.70;99.90;;;;;;5012357;28;20391;-55
2022/10/20 04:03:59;;;;;;;7.22;6.32;;;7.70;99.90;;;;;;5011174;28;20495;-56
2022/10/20 04:06:45;;;;;;;7.50;6.25;;;7.80;99.90;;;;;;4997845;28;20213;-53
2022/10/20 04:09:31;;;;;;;7.93;6.55;;;7.80;99.90;;;;;;5012369;28;20033;-55
2022/10/20 04:12:17;;;;;;;7.78;6.20;;;7.80;99.90;;;;;;5011605;28;20045;-58
2022/10/20 04:15:04;;;;;;;35.50;19.42;;;7.70;99.90;;;;;;5010983;28;20382;-52
2022/10/20 04:17:50;;;;;;;24.95;13.35;;;7.70;99.90;;;;;;5011548;28;20096;-52
2022/10/20 04:20:36;;;;;;;13.15;8.10;;;7.70;99.90;;;;;;5011213;28;20034;-57
2022/10/20 04:23:22;;;;;;;8.23;5.72;;;7.70;99.90;;;;;;5011272;28;20026;-54
2022/10/20 04:26:13;;;;;;;6.63;5.90;;;7.60;99.90;;;;;;5011740;28;20080;-55
2022/10/20 04:28:59;;;;;;;9.05;5.85;;;7.60;99.90;;;;;;5010841;28;20552;-55
2022/10/20 04:31:45;;;;;;;8.30;7.28;;;7.50;99.90;;;;;;5011962;28;20092;-55
2022/10/20 04:34:31;;;;;;;6.65;5.95;;;7.50;99.90;;;;;;5011771;28;20124;-52
2022/10/20 04:37:17;;;;;;;6.65;5.93;;;7.50;99.90;;;;;;5010714;28;20026;-52
2022/10/20 04:40:03;;;;;;;9.95;6.78;;;7.50;99.90;;;;;;5011395;28;20040;-57
2022/10/20 04:42:49;;;;;;;8.90;6.10;;;7.50;99.90;;;;;;5012093;28;20112;-53
2022/10/20 04:45:35;;;;;;;8.48;6.15;;;7.50;99.90;;;;;;5012050;28;20102;-55
2022/10/20 04:48:21;;;;;;;6.35;5.68;;;7.50;99.90;;;;;;5010888;28;20187;-56
2022/10/20 04:51:10;;;;;;;7.45;6.25;;;7.60;99.90;;;;;;5010715;28;20037;-54
2022/10/20 04:53:56;;;;;;;8.25;6.18;;;7.60;99.90;;;;;;5011063;28;20080;-51
2022/10/20 04:56:42;;;;;;;8.38;6.15;;;7.50;99.90;;;;;;5010506;28;20033;-56
2022/10/20 04:59:27;;;;;;;7.63;6.38;;;7.50;99.90;;;;;;4996486;28;20108;-56
2022/10/20 05:02:13;;;;;;;10.45;6.88;;;7.40;99.90;;;;;;5009948;28;20479;-53
2022/10/20 05:04:59;;;;;;;10.20;7.30;;;7.40;99.90;;;;;;5011195;28;20065;-53
2022/10/20 05:07:45;;;;;;;9.35;6.53;;;7.40;99.90;;;;;;4977714;28;20049;-55
2022/10/20 05:10:31;;;;;;;9.32;6.55;;;7.30;99.90;;;;;;4992402;28;20021;-55
2022/10/20 05:13:17;;;;;;;8.45;6.57;;;7.30;99.90;;;;;;5010089;28;20042;-53
2022/10/20 05:16:04;;;;;;;9.75;7.88;;;7.20;99.90;;;;;;5010956;28;20018;-54
2022/10/20 05:18:51;;;;;;;9.38;8.00;;;7.20;99.90;;;;;;5011015;28;20037;-53
2022/10/20 05:21:37;;;;;;;8.15;6.85;;;7.10;99.90;;;;;;5010820;28;20443;-56
2022/10/20 05:24:23;;;;;;;10.10;7.90;;;7.10;99.90;;;;;;5010478;28;20498;-53
2022/10/20 05:27:09;;;;;;;11.18;8.48;;;7.20;99.90;;;;;;5009351;28;20041;-50
2022/10/20 05:29:55;;;;;;;10.27;8.05;;;7.10;99.90;;;;;;5010290;28;20030;-54
2022/10/20 05:32:41;;;;;;;12.93;8.38;;;7.10;99.90;;;;;;5010428;28;20061;-54
2022/10/20 05:35:28;;;;;;;10.45;8.25;;;7.10;99.90;;;;;;5009588;28;20034;-55
2022/10/20 05:38:13;;;;;;;10.60;8.20;;;7.20;99.90;;;;;;5008522;28;20041;-54
2022/10/20 05:41:11;;;;;;;13.68;8.50;;;7.10;99.90;;;;;;5010109;28;20036;-53
2022/10/20 05:44:02;;;;;;;8.73;7.82;;;7.20;99.90;;;;;;5010274;28;20018;-57
2022/10/20 05:46:48;;;;;;;11.55;8.65;;;7.20;99.90;;;;;;5010806;28;20106;-53
2022/10/20 05:49:33;;;;;;;9.50;7.70;;;7.20;99.90;;;;;;4982360;28;20118;-50
2022/10/20 05:52:19;;;;;;;10.93;7.57;;;7.30;99.90;;;;;;4995429;28;20106;-50
2022/10/20 05:55:06;;;;;;;10.30;6.85;;;7.30;99.90;;;;;;5009855;28;20030;-56
2022/10/20 05:57:52;;;;;;;11.13;9.00;;;7.30;99.90;;;;;;5009504;28;20026;-54
2022/10/20 06:00:41;;;;;;;10.38;7.78;;;7.30;99.90;;;;;;4992693;28;20049;-57
2022/10/20 06:03:26;;;;;;;9.25;8.20;;;7.30;99.90;;;;;;4995534;28;20061;-55
2022/10/20 06:06:13;;;;;;;12.10;8.20;;;7.30;99.90;;;;;;5013577;28;20033;-54
2022/10/20 06:08:59;;;;;;;10.07;8.38;;;7.30;99.90;;;;;;4994507;28;20042;-53
2022/10/20 06:11:45;;;;;;;10.25;7.28;;;7.30;99.90;;;;;;5010132;28;20049;-54
2022/10/20 06:14:31;;;;;;;10.98;7.85;;;7.30;99.90;;;;;;4995635;28;20030;-54
2022/10/20 06:17:17;;;;;;;12.68;8.50;;;7.40;99.90;;;;;;4990982;28;20038;-57
2022/10/20 06:20:03;;;;;;;13.35;8.30;;;7.30;99.90;;;;;;5004945;28;20032;-55
2022/10/20 06:22:49;;;;;;;16.52;8.30;;;7.30;99.90;;;;;;4996460;28;20088;-51
2022/10/20 06:25:35;;;;;;;9.98;7.68;;;7.30;99.90;;;;;;5010100;28;20068;-56
2022/10/20 06:28:21;;;;;;;14.35;7.93;;;7.40;99.90;;;;;;4996961;28;20036;-55
2022/10/20 06:31:12;;;;;;;8.95;7.97;;;7.40;99.90;;;;;;5000923;28;20041;-57
2022/10/20 06:33:59;;;;;;;13.18;7.95;;;7.40;99.90;;;;;;5009044;28;20502;-57
2022/10/20 06:36:46;;;;;;;9.85;7.93;;;7.30;99.90;;;;;;5009381;28;20402;-53
2022/10/20 06:39:32;;;;;;;9.90;8.30;;;7.30;99.90;;;;;;5010553;28;20034;-54
2022/10/20 06:42:18;;;;;;;14.52;8.90;;;7.30;99.90;;;;;;4990905;28;20422;-55
2022/10/20 06:45:05;;;;;;;14.85;9.07;;;7.30;99.90;;;;;;5007797;28;20397;-56
2022/10/20 06:47:51;;;;;;;11.63;8.07;;;7.40;99.90;;;;;;4995217;28;20085;-57
2022/10/20 06:50:37;;;;;;;9.88;8.20;;;7.30;99.90;;;;;;4992245;28;20375;-53
2022/10/20 06:53:24;;;;;;;11.43;8.77;;;7.40;99.90;;;;;;4996686;28;20565;-57
2022/10/20 06:56:12;;;;;;;11.13;8.48;;;7.40;99.90;;;;;;5010449;28;20085;-57
2022/10/20 06:59:00;;;;;;;12.52;8.23;;;7.50;99.90;;;;;;4999972;28;20040;-54
2022/10/20 07:01:46;;;;;;;11.45;8.50;;;7.60;99.90;;;;;;5009380;28;20037;-55
2022/10/20 07:04:31;;;;;;;12.00;8.68;;;7.70;99.90;;;;;;5013159;28;20045;-55
2022/10/20 07:07:17;;;;;;;10.07;7.75;;;7.80;99.90;;;;;;5012462;28;20114;-57
2022/10/20 07:10:04;;;;;;;9.13;7.70;;;7.90;99.90;;;;;;5013294;28;20029;-56
2022/10/20 07:12:49;;;;;;;9.93;8.02;;;8.00;99.90;;;;;;5013847;28;20073;-56
2022/10/20 07:15:35;;;;;;;12.82;8.30;;;8.00;99.90;;;;;;5012182;28;20030;-52
2022/10/20 07:18:22;;;;;;;11.15;8.27;;;8.10;99.90;;;;;;5014244;28;20470;-53
2022/10/20 07:21:12;;;;;;;8.63;7.15;;;8.20;99.90;;;;;;5021330;28;20037;-53
2022/10/20 07:24:00;;;;;;;8.88;7.53;;;8.20;99.90;;;;;;5024022;28;20041;-51
2022/10/20 07:26:46;;;;;;;11.13;8.75;;;8.30;99.90;;;;;;5006156;28;20034;-52
2022/10/20 07:29:32;;;;;;;12.10;9.15;;;8.40;99.90;;;;;;5010096;28;20033;-55
2022/10/20 07:32:19;;;;;;;11.75;9.07;;;8.50;99.90;;;;;;5008048;28;20054;-50
2022/10/20 07:35:11;;;;;;;11.38;8.43;;;8.50;99.90;;;;;;4990328;28;20078;-52
2022/10/20 07:37:57;;;;;;;10.13;7.78;;;8.60;99.90;;;;;;5007945;28;20029;-51
2022/10/20 07:40:43;;;;;;;10.15;8.13;;;8.70;99.90;;;;;;5008470;28;20036;-50
2022/10/20 07:43:29;;;;;;;11.73;8.23;;;8.70;99.90;;;;;;5020860;28;20034;-52
2022/10/20 07:46:15;;;;;;;11.27;8.60;;;8.90;99.90;;;;;;5015743;28;20208;-57
2022/10/20 07:49:01;;;;;;;15.55;8.15;;;8.90;99.90;;;;;;5014246;28;20022;-52
2022/10/20 07:51:47;;;;;;;11.60;8.93;;;8.90;99.90;;;;;;5015254;28;20033;-55
2022/10/20 07:54:33;;;;;;;9.43;8.45;;;9.00;99.90;;;;;;5012129;28;20026;-54
2022/10/20 07:57:19;;;;;;;13.85;9.05;;;9.00;99.90;;;;;;5012136;28;20108;-54
2022/10/20 08:00:06;;;;;;;12.02;9.07;;;9.00;99.90;;;;;;5012421;28;20026;-56
2022/10/20 08:02:52;;;;;;;14.38;9.10;;;9.10;99.90;;;;;;5012348;28;20490;-51
2022/10/20 08:05:37;;;;;;;14.10;10.32;;;9.30;99.90;;;;;;5012647;28;20494;-56
2022/10/20 08:08:24;;;;;;;10.90;9.70;;;9.30;99.90;;;;;;5021006;28;20458;-53
2022/10/20 08:11:11;;;;;;;19.15;9.85;;;9.30;99.90;;;;;;5008981;28;20025;-50
2022/10/20 08:13:57;;;;;;;18.08;11.05;;;9.20;99.90;;;;;;5019420;28;20113;-57
2022/10/20 08:16:42;;;;;;;12.40;9.27;;;9.20;99.90;;;;;;5011012;28;20034;-54
2022/10/20 08:19:29;;;;;;;14.43;10.63;;;9.30;99.90;;;;;;5012061;28;20022;-57
2022/10/20 08:22:17;;;;;;;14.20;10.73;;;9.30;99.90;;;;;;5017093;28;20041;-52
2022/10/20 08:25:04;;;;;;;16.35;10.10;;;9.50;99.90;;;;;;5005251;28;20033;-53
2022/10/20 08:27:50;;;;;;;10.68;9.10;;;9.60;99.90;;;;;;5017518;28;20405;-54
2022/10/20 08:30:37;;;;;;;13.15;10.57;;;9.70;99.90;;;;;;5017824;28;20076;-55
2022/10/20 08:33:23;;;;;;;14.85;10.13;;;9.90;99.90;;;;;;5019659;28;20030;-55
2022/10/20 08:36:12;;;;;;;13.13;9.70;;;9.90;99.90;;;;;;5005310;28;20034;-57
2022/10/20 08:38:59;;;;;;;14.00;8.85;;;10.00;99.90;;;;;;5003959;28;20041;-55
2022/10/20 08:41:48;;;;;;;10.63;8.48;;;10.20;99.90;;;;;;4999673;28;20072;-50
2022/10/20 08:44:39;;;;;;;11.05;8.70;;;10.30;99.90;;;;;;5004619;28;20041;-53
2022/10/20 08:47:36;;;;;;;9.32;8.32;;;10.40;99.90;;;;;;5005378;28;20053;-52
2022/10/20 08:50:27;;;;;;;12.70;9.77;;;10.50;99.90;;;;;;5016135;28;20384;-51
2022/10/20 08:53:13;;;;;;;14.52;11.02;;;10.60;99.90;;;;;;5018506;28;20053;-56
2022/10/20 08:56:00;;;;;;;10.57;8.77;;;10.60;99.90;;;;;;5016501;28;20490;-50
2022/10/20 08:58:49;;;;;;;15.98;10.45;;;10.60;99.90;;;;;;5016817;28;20116;-58
2022/10/20 09:01:36;;;;;;;11.63;9.80;;;10.40;99.90;;;;;;5013443;28;20121;-52
2022/10/20 09:04:40;;;;;;;10.43;9.32;;;10.60;99.90;;;;;;5013837;28;20036;-53
2022/10/20 09:07:33;;;;;;;11.45;9.25;;;10.70;99.90;;;;;;5032716;28;20026;-54
2022/10/20 09:10:40;;;;;;;12.90;9.07;;;10.70;99.90;;;;;;5024864;28;20088;-55
2022/10/20 09:13:29;;;;;;;9.95;8.57;;;10.80;99.90;;;;;;5033053;28;20057;-55
2022/10/20 09:16:36;;;;;;;10.20;9.20;;;10.90;99.90;;;;;;5010802;28;20037;-53
2022/10/20 09:19:22;;;;;;;13.07;10.02;;;11.00;99.90;;;;;;5010448;28;20439;-59
2022/10/20 09:22:12;;;;;;;10.52;9.25;;;11.20;99.90;;;;;;5009340;28;20030;-57
2022/10/20 09:24:58;;;;;;;10.93;9.50;;;11.40;99.90;;;;;;4995656;28;20036;-58
2022/10/20 09:27:44;;;;;;;11.20;9.25;;;11.60;99.90;;;;;;4998877;28;20088;-58
2022/10/20 09:30:34;;;;;;;9.95;8.82;;;11.70;99.90;;;;;;4995945;28;20033;-57
2022/10/20 09:33:27;;;;;;;13.70;9.70;;;11.70;99.90;;;;;;5010480;28;20394;-54
2022/10/20 09:36:17;;;;;;;16.05;8.70;;;11.80;99.90;;;;;;5017655;28;20037;-54
2022/10/20 09:39:03;;;;;;;20.35;9.70;;;11.90;99.70;;;;;;5010296;28;20077;-55
2022/10/20 09:41:58;;;;;;;9.60;8.10;;;12.00;99.40;;;;;;5003256;28;20052;-58
2022/10/20 09:45:14;;;;;;;11.10;8.60;;;12.20;99.90;;;;;;5009975;28;20086;-57
2022/10/20 09:48:22;;;;;;;13.88;8.60;;;12.30;99.10;;;;;;4991355;28;20066;-55
2022/10/20 09:51:14;;;;;;;24.20;9.75;;;12.50;98.20;;;;;;4990337;28;20042;-54
2022/10/20 09:54:17;;;;;;;11.20;8.70;;;12.40;98.80;;;;;;4980101;28;20041;-55
2022/10/20 09:57:16;;;;;;;9.32;8.10;;;12.60;97.90;;;;;;4995292;28;20112;-52
2022/10/20 10:00:03;;;;;;;11.35;8.50;;;12.50;97.50;;;;;;5010373;28;20026;-57
2022/10/20 10:03:13;;;;;;;12.40;8.43;;;12.50;97.80;;;;;;5010539;28;20029;-51
2022/10/20 10:05:59;;;;;;;12.40;8.38;;;12.50;97.50;;;;;;5010275;28;20069;-55
2022/10/20 10:08:46;;;;;;;12.45;8.88;;;12.50;97.60;;;;;;5010629;28;20506;-55
2022/10/20 10:11:34;;;;;;;9.23;8.32;;;12.50;97.70;;;;;;4995558;28;20072;-54
2022/10/20 10:14:22;;;;;;;10.13;8.00;;;12.50;97.80;;;;;;4996208;28;20037;-54
2022/10/20 10:17:08;;;;;;;10.70;8.07;;;12.60;97.80;;;;;;5009438;28;20068;-54
2022/10/20 10:19:54;;;;;;;10.80;9.18;;;12.60;97.70;;;;;;5005821;28;20441;-55
2022/10/20 10:22:41;;;;;;;10.50;8.45;;;12.80;97.90;;;;;;5007934;28;20210;-52
2022/10/20 10:25:28;;;;;;;14.23;8.98;;;12.80;97.40;;;;;;5009914;28;20034;-56
2022/10/20 10:28:36;;;;;;;13.35;9.00;;;12.80;97.30;;;;;;5013546;28;20030;-52
2022/10/20 10:31:23;;;;;;;11.00;8.48;;;12.90;97.30;;;;;;5009229;28;20397;-55
2022/10/20 10:34:12;;;;;;;9.95;8.90;;;12.80;96.80;;;;;;5009109;28;20065;-51
2022/10/20 10:36:58;;;;;;;9.40;8.30;;;13.10;96.80;;;;;;5008821;28;20121;-52
2022/10/20 10:39:45;;;;;;;10.68;8.57;;;13.00;97.10;;;;;;5007244;28;20449;-52
2022/10/20 10:43:08;;;;;;;16.20;10.05;;;13.10;97.00;;;;;;5013268;28;20034;-50
2022/10/20 10:46:02;;;;;;;11.43;9.85;;;13.30;96.90;;;;;;4994927;28;20534;-47
2022/10/20 10:49:05;;;;;;;12.07;9.82;;;13.40;96.70;;;;;;4998232;28;20539;-51
2022/10/20 10:52:16;;;;;;;10.55;9.18;;;13.40;96.50;;;;;;5011969;28;20065;-49
2022/10/20 10:55:02;;;;;;;11.68;8.98;;;13.50;96.50;;;;;;5016905;28;20033;-54
2022/10/20 10:58:09;;;;;;;11.93;8.68;;;13.40;96.50;;;;;;5012886;28;20069;-53
2022/10/20 11:01:25;;;;;;;9.43;8.45;;;13.50;96.40;;;;;;4992874;28;20054;-52
2022/10/20 11:04:50;;;;;;;10.20;8.23;;;13.50;96.50;;;;;;4992411;28;20491;-56
2022/10/20 11:08:01;;;;;;;10.30;8.48;;;13.70;96.30;;;;;;4993831;28;20081;-50
2022/10/20 11:11:08;;;;;;;9.80;7.88;;;13.80;95.70;;;;;;4992920;28;20026;-55
2022/10/20 11:14:18;;;;;;;12.20;7.43;;;13.80;95.10;;;;;;4991648;28;20031;-50
2022/10/20 11:17:04;;;;;;;12.07;7.38;;;13.80;95.20;;;;;;4993587;28;20023;-55
2022/10/20 11:19:59;;;;;;;9.52;7.40;;;13.80;95.20;;;;;;4993655;28;20057;-51
2022/10/20 11:22:45;;;;;;;20.98;15.25;;;14.10;95.80;;;;;;4993779;28;20038;-50
2022/10/20 11:25:48;;;;;;;64.10;46.72;;;14.30;95.60;;;;;;4992994;28;20068;-50
2022/10/20 11:28:45;;;;;;;11.73;8.18;;;14.40;95.40;;;;;;4993332;28;20406;-50
2022/10/20 11:31:44;;;;;;;33.03;22.98;;;14.50;94.30;;;;;;4992952;28;20412;-49
2022/10/20 11:34:51;;;;;;;12.10;8.70;;;14.50;95.40;;;;;;4993239;28;20029;-55
2022/10/20 11:37:46;;;;;;;9.43;6.13;;;14.60;94.40;;;;;;4992555;28;20152;-48
2022/10/20 11:40:43;;;;;;;13.80;9.95;;;14.50;93.80;;;;;;4992631;28;20030;-55
2022/10/20 11:43:33;;;;;;;17.85;10.75;;;14.70;94.30;;;;;;4993618;28;20113;-50
2022/10/20 11:47:09;;;;;;;7.68;6.40;;;14.90;94.60;;;;;;4993604;28;20499;-53
2022/10/20 11:49:55;;;;;;;9.95;7.55;;;15.00;93.60;;;;;;4951194;28;20512;-55
2022/10/20 11:53:14;;;;;;;7.75;5.78;;;15.10;94.00;;;;;;4939420;28;20027;-55
2022/10/20 11:56:21;;;;;;;10.23;7.07;;;15.10;93.60;;;;;;4992534;28;20326;-53
2022/10/20 11:59:34;;;;;;;9.75;6.53;;;15.20;94.20;;;;;;4993479;28;20034;-50
2022/10/20 12:02:57;;;;;;;12.10;7.07;;;15.40;93.90;;;;;;4992673;28;20026;-50
2022/10/20 12:06:10;;;;;;;7.97;5.78;;;15.60;93.40;;;;;;5010805;28;20137;-58
2022/10/20 12:09:12;;;;;;;11.73;5.47;;;15.70;93.00;;;;;;5012761;28;20034;-54
2022/10/20 12:12:04;;;;;;;6.82;5.57;;;15.70;92.80;;;;;;5011423;28;20034;-53
2022/10/20 12:14:58;;;;;;;10.23;5.45;;;15.80;93.40;;;;;;5010307;28;20022;-55
2022/10/20 12:17:45;;;;;;;8.63;5.22;;;15.90;92.90;;;;;;5011445;28;20026;-55
2022/10/20 12:20:37;;;;;;;6.57;5.25;;;16.00;92.60;;;;;;5010276;28;20022;-51
2022/10/20 12:23:42;;;;;;;7.55;4.95;;;16.10;92.80;;;;;;4997075;28;20034;-52
2022/10/20 12:26:58;;;;;;;7.07;4.57;;;16.10;92.60;;;;;;5011173;28;20030;-57
2022/10/20 12:29:51;;;;;;;6.57;4.80;;;16.10;92.40;;;;;;5011272;28;20030;-52
2022/10/20 12:33:14;;;;;;;7.22;4.40;;;16.10;92.30;;;;;;5009534;28;20049;-56
2022/10/20 12:36:21;;;;;;;9.32;5.00;;;16.20;92.20;;;;;;4996156;28;20081;-53
2022/10/20 12:39:15;;;;;;;6.38;4.72;;;16.20;91.70;;;;;;4995543;28;20033;-53
2022/10/20 12:42:07;;;;;;;6.38;4.70;;;16.20;92.00;;;;;;5010321;28;20033;-55
2022/10/20 12:44:55;;;;;;;12.60;5.20;;;16.10;91.90;;;;;;4998368;28;20029;-53
2022/10/20 12:47:50;;;;;;;6.22;4.63;;;16.00;91.70;;;;;;5010830;28;20022;-52
2022/10/20 12:50:38;;;;;;;;;;;15.90;92.00;;;;;;5010607;28;20112;-59
2022/10/20 12:53:27;;;;;;;8.68;5.07;;;16.00;92.50;;;;;;5010728;28;19964;-56
2022/10/20 12:56:24;;;;;;;7.00;4.78;;;16.40;92.50;;;;;;4999088;28;20022;-58
2022/10/20 12:59:32;;;;;;;17.65;5.75;;;16.70;92.30;;;;;;5011133;28;20085;-58
2022/10/20 13:02:28;;;;;;;8.27;4.90;;;16.90;91.90;;;;;;5010078;28;20382;-57
2022/10/20 13:05:14;;;;;;;6.50;4.20;;;16.90;91.80;;;;;;5010289;28;20081;-57
2022/10/20 13:08:16;;;;;;;7.65;5.78;;;17.00;91.80;;;;;;4996799;28;20037;-56
2022/10/20 13:11:43;;;;;;;8.98;4.95;;;17.10;91.50;;;;;;5010647;28;20029;-57
2022/10/20 13:14:41;;;;;;;8.52;5.60;;;17.20;91.00;;;;;;5009667;28;20049;-58
2022/10/20 13:17:36;;;;;;;12.82;6.18;;;17.00;91.00;;;;;;5010053;28;20056;-58
2022/10/20 13:20:44;;;;;;;12.43;6.00;;;17.10;91.20;;;;;;5010849;28;20026;-57
2022/10/20 13:23:45;;;;;;;7.45;6.65;;;17.20;91.00;;;;;;4987763;28;21862;-59
2022/10/20 13:26:38;;;;;;;8.38;5.70;;;17.30;91.20;;;;;;5009838;28;20070;-58
2022/10/20 13:29:35;;;;;;;10.30;5.85;;;17.30;91.30;;;;;;5011199;28;20073;-55
2022/10/20 13:32:56;;;;;;;6.70;5.38;;;17.40;91.10;;;;;;5009656;28;20030;-58
2022/10/20 13:35:48;;;;;;;8.60;5.38;;;17.40;91.00;;;;;;4994313;28;20100;-56
2022/10/20 13:38:51;;;;;;;9.07;5.30;;;17.40;90.90;;;;;;4994971;28;20040;-58
2022/10/20 13:41:48;;;;;;;10.23;5.45;;;17.50;90.80;;;;;;4995601;28;20044;-60
2022/10/20 13:45:10;;;;;;;10.35;6.57;;;17.40;91.10;;;;;;4991395;28;20041;-59
2022/10/20 13:48:23;;;;;;;10.85;6.22;;;17.50;91.00;;;;;;4998086;28;20014;-59
2022/10/20 13:51:20;;;;;;;9.95;6.32;;;17.60;91.00;;;;;;4990698;28;20459;-58
2022/10/20 13:54:06;;;;;;;7.93;6.70;;;17.80;91.60;;;;;;5006543;28;20033;-56
2022/10/20 13:56:53;;;;;;;11.65;5.88;;;18.30;91.30;;;;;;5010067;28;20510;-58
2022/10/20 14:00:00;;;;;;;7.90;6.07;;;18.80;90.70;;;;;;5010333;28;20041;-59
2022/10/20 14:03:16;;;;;;;8.38;6.35;;;19.20;90.30;;;;;;5000841;28;20105;-57
2022/10/20 14:06:02;;;;;;;11.95;8.63;;;19.40;89.50;;;;;;5010421;28;20036;-59
2022/10/20 14:08:48;;;;;;;8.27;6.18;;;19.40;89.70;;;;;;4995232;28;20034;-57
2022/10/20 14:11:34;;;;;;;10.02;5.18;;;19.30;88.90;;;;;;5010240;28;20045;-58
2022/10/20 14:14:23;;;;;;;7.78;6.18;;;19.20;89.00;;;;;;5014525;28;20030;-59
2022/10/20 14:17:18;;;;;;;8.55;5.75;;;19.00;89.40;;;;;;5014668;28;20369;-56
2022/10/20 14:20:19;;;;;;;7.93;6.32;;;18.70;89.90;;;;;;5012808;28;20042;-59
2022/10/20 14:23:05;;;;;;;8.27;5.90;;;18.40;90.30;;;;;;4995250;28;20069;-59
2022/10/20 14:25:53;;;;;;;8.02;5.53;;;18.20;90.70;;;;;;4996852;28;20093;-59
2022/10/20 14:28:40;;;;;;;9.85;5.35;;;17.90;91.00;;;;;;5014878;28;20301;-56
2022/10/20 14:31:26;;;;;;;6.47;5.82;;;17.60;91.80;;;;;;5012981;28;20506;-57
2022/10/20 14:34:22;;;;;;;7.90;6.20;;;17.30;92.00;;;;;;5013760;28;20471;-60
2022/10/20 14:37:26;;;;;;;11.65;6.90;;;17.10;92.50;;;;;;4998518;28;20025;-58
2022/10/20 14:40:22;;;;;;;9.55;6.00;;;16.80;92.90;;;;;;5013736;28;20037;-57
2022/10/20 14:43:30;;;;;;;9.10;6.20;;;16.60;93.30;;;;;;4993700;28;20034;-57
2022/10/20 14:46:30;;;;;;;9.70;6.05;;;16.40;93.60;;;;;;5004716;28;20054;-54
2022/10/20 14:49:28;;;;;;;7.57;6.53;;;16.30;93.90;;;;;;5013333;28;20033;-56
2022/10/20 14:52:17;;;;;;;8.70;6.63;;;16.20;94.10;;;;;;4993535;28;20491;-58
2022/10/20 14:55:33;;;;;;;8.20;6.75;;;16.00;94.40;;;;;;5011699;28;20033;-58
2022/10/20 14:58:35;;;;;;;11.38;7.28;;;15.90;95.20;;;;;;5013049;28;20038;-58